Terminal Aerodrome Forecast
Issued by NWS

Home | Current Version | Previous Version | Text Only | Print | Product List | Glossary On
Versions: 1 2 3 4 5 6 7 8 9 10 11 12 13 14 15 16 17 18 19 20 21 22 23 24 25 26 27 28 29 30 31 32 33 34 35 36 37 38 39 40
867
FTUS41 KGYX 242137 AAB
TAFHIE
TAF AMD
KHIE 242137Z 2422/2518 08015G25KT P6SM OVC035
     FM250200 09010KT 3SM -RA BR OVC015
     FM251000 VRB03KT 5SM BR BKN025=

USA.gov is the U.S. government's official web portal to all federal, state and local government web resources and services.